National Weather Service
For a better view on National Weather Service, Update Your Browser.
Current Weather
  • 83o F Feels Like 89o F
  • 24 Hr Rainfall Accumulation 0 mm
  • Wind Speed 6.2 knots
  • Wind Direction SSE
  • Humidity 73%
  • Pressure 1016.9 millibars
Today's Forecast As of 2 Mar 2024 5:05 PM
Partly Cloudy
Evening
Partly Cloudy
Min 74o F | Max 84o F
  • Partly Cloudy
    Night
    Partly Cloudy
    Min 74o F | Max 84o F
06:44 18:30
  • East to southeast at 10 to 15 knots.

  • Moderate with a wave height of 3 to 5 feet.

Aviation Forecast

Grand Cayman: Terminal Aerodrome Forecast

Last updated at 02 Mar 2024 06:59 PM

TAF MWCR 021700Z 0218/0318 10012KT 9999 SCT018

Grand Cayman: Metar Reports

Last updated at 02 Mar 2024 05:00 PM

Mar 02, 2024 - 05:00 PM EST / 2024.03.02 2200 UTC
Wind: from the ESE (120 degrees) at 9 MPH (8 KT):0
Visibility: greater than 7 mile(s):0
Sky conditions: mostly clear
Temperature: 84 F (29 C)
Dew Point: 71 F (22 C)
Relative Humidity: 65%
Pressure (altimeter): 30.00 in. Hg (1016 hPa)
ob: MWCR 022200Z 12008KT 9999 FEW018 29/22 Q1016

Cayman Brac: Terminal Aerodrome Forecast

Last updated at 02 Mar 2024 06:00 PM

TAF TAF MWCB 021700Z 0218/0318 10012KT 9999 SCT018

Cayman Brac: Metar Reports

Last updated at 02 Mar 2024 05:00 PM

Mar 02, 2024 - 05:00 PM EST / 2024.03.02 2200 UTC
Wind: from the E (100 degrees) at 8 MPH (7 KT):0
Visibility: greater than 7 mile(s):0
Sky conditions: mostly clear
Temperature: 84 F (29 C)
Dew Point: 71 F (22 C)
Relative Humidity: 65%
Pressure (altimeter): 30.03 in. Hg (1017 hPa)
ob: MWCB 022200Z 10007KT 9999 FEW018 29/22 Q1017

Turbulence

Radar images are not available at this time. Sorry for the inconvenience.

Wind SHEAR

Radar images are not available at this time. Sorry for the inconvenience.